createdAt,value
2017-12-25T00:01:21.814Z,3.65
2017-12-25T00:03:49.310Z,4.82
2017-12-25T00:06:16.836Z,4.87
2017-12-25T00:08:44.326Z,3.95
2017-12-25T00:11:11.856Z,3.78
2017-12-25T00:13:39.349Z,3.90
2017-12-25T00:16:06.896Z,4.37
2017-12-25T00:18:34.391Z,4.37
2017-12-25T00:21:01.909Z,3.70
2017-12-25T00:23:29.432Z,4.65
2017-12-25T00:25:56.918Z,4.25
2017-12-25T00:28:24.447Z,4.30
2017-12-25T00:30:51.938Z,5.68
2017-12-25T00:33:20.222Z,4.55
2017-12-25T00:35:47.733Z,4.45
2017-12-25T00:38:15.244Z,4.32
2017-12-25T00:40:42.759Z,4.12
2017-12-25T00:43:10.246Z,4.80
2017-12-25T00:45:38.549Z,4.60
2017-12-25T00:48:06.052Z,4.62
2017-12-25T00:50:33.547Z,5.57
2017-12-25T00:53:01.072Z,4.85
2017-12-25T00:55:28.585Z,4.35
2017-12-25T00:57:56.101Z,4.37
2017-12-25T01:00:24.353Z,4.40
2017-12-25T01:02:51.893Z,4.72
2017-12-25T01:05:19.381Z,4.43
2017-12-25T01:07:46.870Z,4.07
2017-12-25T01:10:14.411Z,3.37
2017-12-25T01:12:42.692Z,4.12
2017-12-25T01:15:10.973Z,4.10
2017-12-25T01:17:39.249Z,4.35
2017-12-25T01:20:06.837Z,4.05
2017-12-25T01:22:34.347Z,3.83
2017-12-25T01:25:01.842Z,4.07
2017-12-25T01:27:29.361Z,3.95
2017-12-25T01:29:58.381Z,3.65
2017-12-25T01:32:25.870Z,3.03
2017-12-25T01:34:53.394Z,3.28
2017-12-25T01:37:20.895Z,2.45
2017-12-25T01:39:48.415Z,3.03
2017-12-25T01:42:15.945Z,3.00
2017-12-25T01:44:43.433Z,2.62
2017-12-25T01:47:10.947Z,3.22
2017-12-25T01:49:38.457Z,3.35
2017-12-25T01:52:05.992Z,2.60
2017-12-25T01:54:36.079Z,3.10
2017-12-25T02:00:47.692Z,2.78
2017-12-25T02:03:15.234Z,3.72
2017-12-25T02:08:43.243Z,4.00
2017-12-25T02:11:10.762Z,4.32
2017-12-25T02:13:38.276Z,4.60
2017-12-25T02:16:05.770Z,4.72
2017-12-25T02:18:33.262Z,5.45
2017-12-25T02:21:00.771Z,4.70
2017-12-25T02:23:28.285Z,5.30
2017-12-25T02:25:55.821Z,6.20
2017-12-25T02:28:23.333Z,5.12
2017-12-25T02:30:51.605Z,7.10
2017-12-25T02:33:19.888Z,7.25
2017-12-25T02:35:47.419Z,7.40
2017-12-25T02:38:16.458Z,5.53
2017-12-25T02:40:43.950Z,7.05
2017-12-25T02:43:11.457Z,6.20
2017-12-25T02:45:39.725Z,6.37
2017-12-25T02:48:07.999Z,5.00
2017-12-25T02:50:35.515Z,4.55
2017-12-25T02:53:03.025Z,3.05
2017-12-25T02:55:31.286Z,3.45
2017-12-25T02:57:58.817Z,3.37
2017-12-25T03:00:26.315Z,2.65
2017-12-25T03:02:54.599Z,2.83
2017-12-25T03:05:22.877Z,2.40
2017-12-25T03:07:50.366Z,2.53
2017-12-25T03:10:17.892Z,2.20
2017-12-25T03:12:46.164Z,3.40
2017-12-25T03:15:14.464Z,2.40
2017-12-25T03:17:42.033Z,2.22
2017-12-25T03:20:09.534Z,2.00
2017-12-25T03:22:38.554Z,2.05
2017-12-25T03:25:06.859Z,1.80
2017-12-25T03:27:34.398Z,1.42
2017-12-25T03:30:01.882Z,1.62
2017-12-25T03:32:29.374Z,1.58
2017-12-25T03:34:56.882Z,1.80
2017-12-25T03:37:24.380Z,1.48
2017-12-25T03:39:51.909Z,1.70
2017-12-25T03:42:19.418Z,1.58
2017-12-25T03:44:47.693Z,1.55
2017-12-25T03:47:15.207Z,1.30
2017-12-25T03:49:42.693Z,2.12
2017-12-25T03:52:10.312Z,1.60
2017-12-25T03:54:37.818Z,1.70
2017-12-25T03:57:05.311Z,1.75
2017-12-25T03:59:32.833Z,2.12
2017-12-25T04:02:00.318Z,1.80
2017-12-25T04:04:28.595Z,1.55
2017-12-25T04:06:56.903Z,1.90
2017-12-25T04:09:24.410Z,1.35
2017-12-25T04:11:52.697Z,1.45
2017-12-25T04:14:20.976Z,1.87
2017-12-25T04:16:49.262Z,1.77
2017-12-25T04:19:17.541Z,2.20
2017-12-25T04:21:45.048Z,2.03
2017-12-25T04:24:12.563Z,1.80
2017-12-25T04:26:40.055Z,1.42
2017-12-25T04:29:07.578Z,1.70
2017-12-25T04:31:35.097Z,1.50
2017-12-25T04:34:02.609Z,1.70
2017-12-25T04:36:30.172Z,1.70
2017-12-25T04:38:57.671Z,1.58
2017-12-25T04:41:25.212Z,1.37
2017-12-25T04:43:52.721Z,2.20
2017-12-25T04:46:20.210Z,1.40
2017-12-25T04:48:47.726Z,1.10
2017-12-25T04:51:16.001Z,1.23
2017-12-25T04:53:44.295Z,1.27
2017-12-25T04:56:11.979Z,1.65
2017-12-25T04:58:39.474Z,1.30
2017-12-25T05:01:06.994Z,1.40
2017-12-25T05:03:34.541Z,1.75
2017-12-25T05:06:02.081Z,1.60
2017-12-25T05:08:30.429Z,1.50
2017-12-25T05:10:57.942Z,1.60
2017-12-25T05:13:25.450Z,1.90
2017-12-25T05:15:52.942Z,1.70
2017-12-25T05:18:20.458Z,1.50
2017-12-25T05:20:47.946Z,1.45
2017-12-25T05:23:16.219Z,1.73
2017-12-25T05:25:44.504Z,1.95
2017-12-25T05:28:12.781Z,1.80
2017-12-25T05:30:40.301Z,1.67
2017-12-25T05:33:07.804Z,2.08
2017-12-25T05:35:35.307Z,1.50
2017-12-25T05:38:02.818Z,1.58
2017-12-25T05:40:30.327Z,1.62
2017-12-25T05:42:58.643Z,1.77
2017-12-25T05:45:26.917Z,1.37
2017-12-25T05:47:55.192Z,1.80
2017-12-25T05:50:23.490Z,1.90
2017-12-25T05:52:51.002Z,1.58
2017-12-25T05:55:19.301Z,1.50
2017-12-25T05:57:47.553Z,1.52
2017-12-25T06:00:15.050Z,1.50
2017-12-25T06:02:42.554Z,1.55
2017-12-25T06:05:10.065Z,1.50
2017-12-25T06:07:37.587Z,1.20
2017-12-25T06:10:05.089Z,1.50
2017-12-25T06:12:32.588Z,2.00
2017-12-25T06:15:00.212Z,1.48
2017-12-25T06:17:27.722Z,1.30
2017-12-25T06:19:55.244Z,1.30
2017-12-25T06:22:22.752Z,1.12
2017-12-25T06:24:51.006Z,1.00
2017-12-25T06:27:18.636Z,1.30
2017-12-25T06:29:46.160Z,1.17
2017-12-25T06:32:14.447Z,1.15
2017-12-25T06:34:41.947Z,0.88
2017-12-25T06:37:09.463Z,1.00
2017-12-25T06:39:36.974Z,1.12
2017-12-25T06:42:04.462Z,0.90
2017-12-25T06:44:32.764Z,1.30
2017-12-25T06:47:00.268Z,1.20
2017-12-25T06:49:27.786Z,1.27
2017-12-25T06:51:55.314Z,1.33
2017-12-25T06:54:23.588Z,1.70
2017-12-25T06:56:51.875Z,1.50
2017-12-25T06:59:19.383Z,1.58
2017-12-25T07:01:46.892Z,2.50
2017-12-25T07:04:14.407Z,2.53
2017-12-25T07:06:41.916Z,2.70
2017-12-25T07:09:09.454Z,3.42
2017-12-25T07:11:37.706Z,3.10
2017-12-25T07:14:05.226Z,3.85
2017-12-25T07:16:32.730Z,4.35
2017-12-25T07:19:00.994Z,2.95
2017-12-25T07:21:28.519Z,3.20
2017-12-25T07:23:56.069Z,3.17
2017-12-25T07:26:23.585Z,2.90
2017-12-25T07:28:52.059Z,2.83
2017-12-25T07:31:19.559Z,3.62
2017-12-25T07:33:47.087Z,2.50
2017-12-25T07:36:15.340Z,3.30
2017-12-25T07:38:42.847Z,2.85
2017-12-25T07:41:10.408Z,3.62
2017-12-25T07:43:37.913Z,4.15
2017-12-25T07:46:05.436Z,4.07
2017-12-25T07:48:32.930Z,3.70
2017-12-25T07:51:00.432Z,3.92
2017-12-25T07:53:27.955Z,4.20
2017-12-25T07:55:55.472Z,4.43
2017-12-25T07:58:22.992Z,4.70
2017-12-25T08:00:51.242Z,4.00
2017-12-25T08:03:18.781Z,5.10
2017-12-25T08:05:46.275Z,4.20
2017-12-25T08:08:14.530Z,3.90
2017-12-25T08:10:42.049Z,4.60
2017-12-25T08:13:09.552Z,5.10
2017-12-25T08:15:37.072Z,5.15
2017-12-25T08:18:04.577Z,4.90
2017-12-25T08:20:32.866Z,6.68
2017-12-25T08:23:01.165Z,6.50
2017-12-25T08:25:28.681Z,5.03
2017-12-25T08:27:56.205Z,6.28
2017-12-25T08:30:23.708Z,5.70
2017-12-25T08:32:51.231Z,5.55
2017-12-25T08:35:18.749Z,4.80
2017-12-25T08:37:46.247Z,5.47
2017-12-25T08:40:13.779Z,6.43
2017-12-25T08:42:41.266Z,5.53
2017-12-25T08:45:08.802Z,6.35
2017-12-25T08:47:36.303Z,6.85
2017-12-25T08:50:03.808Z,7.20
2017-12-25T08:52:31.333Z,7.47
2017-12-25T08:54:58.841Z,6.30
2017-12-25T08:57:26.367Z,13.23
2017-12-25T08:59:53.904Z,4.55
2017-12-25T09:02:21.390Z,4.93
2017-12-25T09:04:48.912Z,6.57
2017-12-25T09:07:16.442Z,4.75
2017-12-25T09:09:43.948Z,5.82
2017-12-25T09:12:12.227Z,4.00
2017-12-25T09:14:40.492Z,2.70
2017-12-25T09:17:07.984Z,3.00
2017-12-25T09:19:35.482Z,3.40
2017-12-25T09:22:02.974Z,2.92
2017-12-25T09:24:31.270Z,2.93
2017-12-25T09:26:58.987Z,2.37
2017-12-25T09:29:26.499Z,4.65
2017-12-25T09:31:53.998Z,3.10
2017-12-25T09:34:21.522Z,3.03
2017-12-25T09:36:49.028Z,2.90
2017-12-25T09:39:17.308Z,2.43
2017-12-25T09:41:44.818Z,3.95
2017-12-25T09:44:12.327Z,3.33
2017-12-25T09:46:39.846Z,3.40
2017-12-25T09:49:07.343Z,4.22
2017-12-25T09:51:34.843Z,5.30
2017-12-25T09:54:02.362Z,5.20
2017-12-25T09:56:30.630Z,7.00
2017-12-25T09:58:58.173Z,5.75
2017-12-25T10:01:25.679Z,5.72
2017-12-25T10:03:53.183Z,6.35
2017-12-25T10:06:20.702Z,6.18
2017-12-25T10:08:48.199Z,4.70
2017-12-25T10:11:15.718Z,4.70
2017-12-25T10:13:43.251Z,4.40
2017-12-25T10:16:11.519Z,3.90
2017-12-25T10:18:39.805Z,3.90
2017-12-25T10:21:08.096Z,3.10
2017-12-25T10:23:35.608Z,3.07
2017-12-25T10:26:03.111Z,2.78
2017-12-25T10:28:30.667Z,2.80
2017-12-25T10:30:58.933Z,3.37
2017-12-25T10:33:27.186Z,3.58
2017-12-25T10:35:54.704Z,5.10
2017-12-25T10:38:22.194Z,2.60
2017-12-25T10:40:49.715Z,3.35
2017-12-25T10:43:17.210Z,2.33
2017-12-25T10:45:44.716Z,5.32
2017-12-25T10:48:12.236Z,3.23
2017-12-25T10:50:39.750Z,3.37
2017-12-25T10:53:07.272Z,2.83
2017-12-25T10:55:35.538Z,2.20
2017-12-25T10:58:03.054Z,3.90
2017-12-25T11:00:36.324Z,2.10
2017-12-25T11:03:03.819Z,3.10
2017-12-25T11:05:31.330Z,3.95
2017-12-25T11:07:58.854Z,3.35
2017-12-25T11:10:26.351Z,5.10
2017-12-25T11:12:53.843Z,4.80
2017-12-25T11:15:21.371Z,3.70
2017-12-25T11:17:48.884Z,2.45
2017-12-25T11:20:17.157Z,2.15
2017-12-25T11:22:44.666Z,1.80
2017-12-25T11:25:12.178Z,1.70
2017-12-25T11:27:39.841Z,1.90
2017-12-25T11:30:07.308Z,2.15
2017-12-25T11:32:35.604Z,2.00
2017-12-25T11:35:03.868Z,2.97
2017-12-25T11:37:32.177Z,2.60
2017-12-25T11:39:59.703Z,2.67
2017-12-25T11:42:27.971Z,2.45
2017-12-25T11:44:56.256Z,2.20
2017-12-25T11:47:24.526Z,1.80
2017-12-25T11:49:52.808Z,1.65
2017-12-25T11:52:21.063Z,1.97
2017-12-25T11:54:48.558Z,1.80
2017-12-25T11:57:16.841Z,1.93
2017-12-25T11:59:44.338Z,1.80
2017-12-25T12:02:11.858Z,1.47
2017-12-25T12:04:39.350Z,1.37
2017-12-25T12:07:06.843Z,1.70
2017-12-25T12:09:35.118Z,1.70
2017-12-25T12:12:02.607Z,1.60
2017-12-25T12:14:30.147Z,1.50
2017-12-25T12:16:58.401Z,1.40
2017-12-25T12:19:25.917Z,1.47
2017-12-25T12:21:53.473Z,1.70
2017-12-25T12:24:20.971Z,10.33
2017-12-25T12:26:48.484Z,1.90
2017-12-25T12:29:16.015Z,1.10
2017-12-25T12:31:44.288Z,1.10
2017-12-25T12:34:12.606Z,1.00
2017-12-25T12:36:40.129Z,1.00
2017-12-25T12:39:08.406Z,1.63
2017-12-25T12:41:36.683Z,1.70
2017-12-25T12:44:04.192Z,1.20
2017-12-25T12:46:31.805Z,1.70
2017-12-25T12:48:59.319Z,1.77
2017-12-25T12:51:26.815Z,1.10
2017-12-25T12:53:55.116Z,1.97
2017-12-25T12:56:22.625Z,1.30
2017-12-25T12:58:50.137Z,1.37
2017-12-25T13:01:17.663Z,1.50
2017-12-25T13:03:45.961Z,1.10
2017-12-25T13:06:13.442Z,1.50
2017-12-25T13:08:40.953Z,1.53
2017-12-25T13:11:09.230Z,1.45
2017-12-25T13:13:37.527Z,0.90
2017-12-25T13:16:05.047Z,1.40
2017-12-25T13:18:32.548Z,1.07
2017-12-25T13:21:00.070Z,2.03
2017-12-25T13:23:27.601Z,2.53
2017-12-25T13:25:55.099Z,3.10
2017-12-25T13:28:23.397Z,1.00
2017-12-25T13:30:50.905Z,1.50
2017-12-25T13:33:18.437Z,0.90
2017-12-25T13:35:45.946Z,1.20
2017-12-25T13:38:14.219Z,4.47
2017-12-25T13:40:42.476Z,1.00
2017-12-25T13:43:10.003Z,1.13
2017-12-25T13:45:37.490Z,1.02
2017-12-25T13:48:05.013Z,1.10
2017-12-25T13:50:32.522Z,0.90
2017-12-25T13:53:00.807Z,1.30
2017-12-25T13:55:29.107Z,1.15
2017-12-25T13:57:56.590Z,1.23
2017-12-25T14:00:24.121Z,1.90
2017-12-25T14:02:51.633Z,2.50
2017-12-25T14:05:19.924Z,1.08
2017-12-25T14:07:48.206Z,0.90
2017-12-25T14:10:16.497Z,1.00
2017-12-25T14:12:43.994Z,1.00
2017-12-25T14:15:11.528Z,1.10
2017-12-25T14:17:39.036Z,0.98
2017-12-25T14:20:07.353Z,0.90
2017-12-25T14:22:34.846Z,0.90
2017-12-25T14:25:02.356Z,1.00
2017-12-25T14:27:29.898Z,0.90
2017-12-25T14:29:57.413Z,1.00
2017-12-25T14:32:24.911Z,1.10
2017-12-25T14:34:52.427Z,1.20
2017-12-25T14:37:19.918Z,1.37
2017-12-25T14:39:47.410Z,0.95
2017-12-25T14:42:15.696Z,1.10
2017-12-25T14:44:43.273Z,1.30
2017-12-25T14:47:10.779Z,1.00
2017-12-25T14:49:38.316Z,1.35
2017-12-25T14:52:05.829Z,1.30
2017-12-25T14:54:33.385Z,1.23
2017-12-25T14:57:00.900Z,1.30
2017-12-25T14:59:29.215Z,1.12
2017-12-25T15:01:57.489Z,1.10
2017-12-25T15:04:24.986Z,1.15
2017-12-25T15:06:52.513Z,1.17
2017-12-25T15:09:20.008Z,1.10
2017-12-25T15:11:47.513Z,2.33
2017-12-25T15:14:16.072Z,1.10
2017-12-25T15:16:43.550Z,1.45
2017-12-25T15:19:11.830Z,1.58
2017-12-25T15:21:40.113Z,1.23
2017-12-25T15:24:08.389Z,1.30
2017-12-25T15:26:36.682Z,1.33
2017-12-25T15:29:04.190Z,1.40
2017-12-25T15:31:31.714Z,1.50
2017-12-25T15:33:59.232Z,1.48
2017-12-25T15:36:27.494Z,1.58
2017-12-25T15:38:55.084Z,1.42
2017-12-25T15:41:22.575Z,1.40
2017-12-25T15:43:50.076Z,1.55
2017-12-25T15:46:18.373Z,1.40
2017-12-25T15:48:45.866Z,1.40
2017-12-25T15:51:13.375Z,1.30
2017-12-25T15:53:41.658Z,1.25
2017-12-25T15:56:09.919Z,1.75
2017-12-25T15:58:38.197Z,1.77
2017-12-25T16:01:06.479Z,4.90
2017-12-25T16:03:34.769Z,5.12
2017-12-25T16:06:03.040Z,1.45
2017-12-25T16:08:31.370Z,4.03
2017-12-25T16:10:58.881Z,2.17
2017-12-25T16:13:26.394Z,2.67
2017-12-25T16:15:53.882Z,5.95
2017-12-25T16:18:22.156Z,4.10
2017-12-25T16:20:50.429Z,1.98
2017-12-25T16:23:18.750Z,1.50
2017-12-25T16:25:46.330Z,1.40
2017-12-25T16:28:13.841Z,1.40
2017-12-25T16:30:42.094Z,2.05
2017-12-25T16:33:09.599Z,2.10
2017-12-25T16:35:37.101Z,1.50
2017-12-25T16:38:04.612Z,1.60
2017-12-25T16:40:32.115Z,1.52
2017-12-25T16:42:59.734Z,1.02
2017-12-25T16:45:27.246Z,1.50
2017-12-25T16:47:54.762Z,1.25
2017-12-25T16:50:22.281Z,1.50
2017-12-25T16:52:50.552Z,1.70
2017-12-25T16:55:18.821Z,1.67
2017-12-25T16:57:47.078Z,1.30
2017-12-25T17:00:14.641Z,1.45
2017-12-25T17:02:42.126Z,1.70
2017-12-25T17:05:10.425Z,1.62
2017-12-25T17:07:37.923Z,1.80
2017-12-25T17:10:05.415Z,1.23
2017-12-25T17:12:33.690Z,1.67
2017-12-25T17:15:01.962Z,1.52
2017-12-25T17:17:30.246Z,1.50
2017-12-25T17:19:58.525Z,1.20
2017-12-25T17:22:26.039Z,1.08
2017-12-25T17:24:53.545Z,1.50
2017-12-25T17:27:21.051Z,1.42
2017-12-25T17:29:48.533Z,2.17
2017-12-25T17:32:17.571Z,1.20
2017-12-25T17:34:45.068Z,1.20
2017-12-25T17:37:12.573Z,1.48
2017-12-25T17:39:40.094Z,1.20
2017-12-25T17:42:07.601Z,1.40
2017-12-25T17:44:35.120Z,1.15
2017-12-25T17:47:02.712Z,1.40
2017-12-25T17:49:30.299Z,1.23
2017-12-25T17:51:57.799Z,1.67
2017-12-25T17:54:25.290Z,1.37
2017-12-25T17:56:52.795Z,1.60
2017-12-25T17:59:20.301Z,1.52
2017-12-25T18:01:47.854Z,1.80
2017-12-25T18:04:15.365Z,1.60
2017-12-25T18:06:42.865Z,1.33
2017-12-25T18:09:11.144Z,1.48
2017-12-25T18:11:38.669Z,1.40
2017-12-25T18:14:06.182Z,1.70
2017-12-25T18:16:33.674Z,1.90
2017-12-25T18:19:01.182Z,1.40
2017-12-25T18:21:28.699Z,1.40
2017-12-25T18:23:56.204Z,1.70
2017-12-25T18:26:23.715Z,2.08
2017-12-25T18:28:51.228Z,1.52
2017-12-25T18:31:18.737Z,1.50
2017-12-25T18:33:46.252Z,1.90
2017-12-25T18:36:13.748Z,1.77
2017-12-25T18:38:41.234Z,1.75
2017-12-25T18:41:09.524Z,2.45
2017-12-25T18:43:37.010Z,2.10
2017-12-25T18:46:04.509Z,2.60
2017-12-25T18:48:32.797Z,2.33
2017-12-25T18:51:01.059Z,2.50
2017-12-25T18:53:28.566Z,2.67
2017-12-25T18:55:56.084Z,2.42
2017-12-25T18:58:23.574Z,2.75
2017-12-25T19:00:51.074Z,2.53
2017-12-25T19:03:18.577Z,2.58
2017-12-25T19:05:46.859Z,2.62
2017-12-25T19:08:14.419Z,2.67
2017-12-25T19:10:41.930Z,3.25
2017-12-25T19:13:10.992Z,2.62
2017-12-25T19:15:38.494Z,2.85
2017-12-25T19:18:06.009Z,2.80
2017-12-25T19:20:33.516Z,3.58
2017-12-25T19:23:00.998Z,3.03
2017-12-25T19:25:28.521Z,3.12
2017-12-25T19:27:56.002Z,3.03
2017-12-25T19:30:24.284Z,3.65
2017-12-25T19:32:52.536Z,3.00
2017-12-25T19:35:20.062Z,3.58
2017-12-25T19:37:47.551Z,3.15
2017-12-25T19:40:15.047Z,3.70
2017-12-25T19:42:42.564Z,4.03
2017-12-25T19:45:10.064Z,4.10
2017-12-25T19:47:37.559Z,3.60
2017-12-25T19:50:05.077Z,3.53
2017-12-25T19:52:32.654Z,3.65
2017-12-25T19:55:00.170Z,3.62
2017-12-25T19:57:27.689Z,3.28
2017-12-25T19:59:55.191Z,3.53
2017-12-25T20:02:23.456Z,4.22
2017-12-25T20:04:50.956Z,4.55
2017-12-25T20:07:18.443Z,4.32
2017-12-25T20:09:45.925Z,4.65
2017-12-25T20:12:13.428Z,4.72
2017-12-25T20:14:40.926Z,4.25
2017-12-25T20:17:08.444Z,4.70
2017-12-25T20:19:35.929Z,5.00
2017-12-25T20:22:03.436Z,5.50
2017-12-25T20:24:31.711Z,9.80
2017-12-25T20:26:59.980Z,7.90
2017-12-25T20:29:28.273Z,6.55
2017-12-25T20:31:55.766Z,7.82
2017-12-25T20:34:23.284Z,7.87
2017-12-25T20:36:51.573Z,6.25
2017-12-25T20:39:19.850Z,5.18
2017-12-25T20:41:47.350Z,6.00
2017-12-25T20:44:14.849Z,8.20
2017-12-25T20:46:43.154Z,6.93
2017-12-25T20:49:10.647Z,6.25
2017-12-25T20:51:38.160Z,5.40
2017-12-25T20:54:05.691Z,5.68
2017-12-25T20:56:33.946Z,5.37
2017-12-25T20:59:01.454Z,5.87
2017-12-25T21:01:28.951Z,6.03
2017-12-25T21:03:56.468Z,6.90
2017-12-25T21:06:23.992Z,6.68
2017-12-25T21:08:51.500Z,6.75
2017-12-25T21:11:18.994Z,5.97
2017-12-25T21:13:46.502Z,6.30
2017-12-25T21:16:14.005Z,6.60
2017-12-25T21:18:41.578Z,6.60
2017-12-25T21:21:09.088Z,6.00
2017-12-25T21:23:36.601Z,5.32
2017-12-25T21:26:04.094Z,5.93
2017-12-25T21:28:31.625Z,6.10
2017-12-25T21:30:59.888Z,5.85
2017-12-25T21:33:27.380Z,6.32
2017-12-25T21:35:54.913Z,6.75
2017-12-25T21:38:22.426Z,5.70
2017-12-25T21:40:49.918Z,6.20
2017-12-25T21:43:17.454Z,6.22
2017-12-25T21:45:44.949Z,6.20
2017-12-25T21:48:13.203Z,5.47
2017-12-25T21:50:40.720Z,5.62
2017-12-25T21:53:08.211Z,4.90
2017-12-25T21:55:35.708Z,5.35
2017-12-25T21:58:03.998Z,5.45
2017-12-25T22:00:31.501Z,5.07
2017-12-25T22:02:58.987Z,5.18
2017-12-25T22:05:27.288Z,6.65
2017-12-25T22:07:54.777Z,5.55
2017-12-25T22:10:22.282Z,5.10
2017-12-25T22:12:50.562Z,5.80
2017-12-25T22:15:18.828Z,6.43
2017-12-25T22:17:46.310Z,5.35
2017-12-25T22:20:14.588Z,5.57
2017-12-25T22:22:42.096Z,5.80
2017-12-25T22:25:09.612Z,5.80
2017-12-25T22:27:37.102Z,6.68
2017-12-25T22:30:04.616Z,5.78
2017-12-25T22:32:32.870Z,6.25
2017-12-25T22:35:01.156Z,6.40
2017-12-25T22:37:29.461Z,5.72
2017-12-25T22:39:56.971Z,6.00
2017-12-25T22:42:24.463Z,6.45
2017-12-25T22:44:52.744Z,9.10
2017-12-25T22:47:20.234Z,5.75
2017-12-25T22:49:47.719Z,5.25
2017-12-25T22:52:15.253Z,5.62
2017-12-25T22:54:42.743Z,6.30
2017-12-25T22:57:10.230Z,9.25
2017-12-25T22:59:38.526Z,7.30
2017-12-25T23:02:06.019Z,5.87
2017-12-25T23:04:33.524Z,7.53
2017-12-25T23:07:01.051Z,7.07
2017-12-25T23:09:28.561Z,6.15
2017-12-25T23:11:56.057Z,5.62
2017-12-25T23:14:23.590Z,6.47
2017-12-25T23:16:51.093Z,6.18
2017-12-25T23:19:19.356Z,6.25
2017-12-25T23:21:46.871Z,6.68
2017-12-25T23:24:14.353Z,6.15
2017-12-25T23:26:41.861Z,6.65
2017-12-25T23:29:09.441Z,6.87
2017-12-25T23:31:36.948Z,6.95
2017-12-25T23:34:04.453Z,6.57
2017-12-25T23:36:31.978Z,6.90
2017-12-25T23:39:00.226Z,6.18
2017-12-25T23:41:27.710Z,6.60
2017-12-25T23:43:56.013Z,7.28
2017-12-25T23:46:23.503Z,8.00
2017-12-25T23:48:51.012Z,7.85
2017-12-25T23:51:19.308Z,7.57
2017-12-25T23:53:46.816Z,8.00
2017-12-25T23:56:15.092Z,6.85
2017-12-25T23:58:42.611Z,7.93
